Sabine Pilot — WAK7647 — position and weather

sailwx.info

Track history (hours):
 
Tides and Currents Weather Stations Pressure Air Temp Water Temp Dewpoint Dewpoint Depression Visibility Wind Speed Wind Dir Waves Ship Positions

Sabine Pilot

Owner: SABINE PILOT SERVICE INC, GROVES, TX. More information available from US FCC via Universal Licensing System and Coast Guard Vessel Documentation Center.

Last reported at 2018-May-20 21:31 UTC. Time now 2018-May-20 21:47 UTC.
Position N 29°43' W 093°52'.

Length 21 m; draft 1.5 m.

Type: Pilot. MMSI: 366896250.

Date/timePositionNaut miles runAvg speedWind from/ knotsBaromVisibWave heightAir tempDewpointWater temp
2018-May-20 21:31N 29°43' W 093°52'0 0.0
2018-May-20 21:00N 29°43' W 093°52'0 0.3
2018-May-20 20:30N 29°43' W 093°52'612.3
2018-May-20 20:00N 29°38' W 093°49'611.6
2018-May-20 19:30N 29°33' W 093°45'811.3
2018-May-20 18:47N 29°26' W 093°40'612.1
2018-May-20 18:19N 29°31' W 093°42'619.1
2018-May-20 18:00N 29°35' W 093°47'918.1
2018-May-20 17:31N 29°43' W 093°52'816.2
2018-May-20 17:00N 29°36' W 093°48'3 5.7
2018-May-20 16:31N 29°33' W 093°46'814.6
2018-May-20 15:56N 29°27' W 093°40'511.7
2018-May-20 15:30N 29°31' W 093°43'612.9
2018-May-20 15:00N 29°36' W 093°48'611.1
2018-May-20 14:30N 29°41' W 093°50'3 5.4
2018-May-20 14:00N 29°43' W 093°52'0 0.0
2018-May-20 13:30N 29°43' W 093°52'0 0.0
2018-May-20 13:00N 29°43' W 093°52'0 0.0
2018-May-20 12:30N 29°43' W 093°52'0 0.0
2018-May-20 12:00N 29°43' W 093°52'0 0.0
2018-May-20 11:30N 29°43' W 093°52'0 0.0
2018-May-20 11:00N 29°43' W 093°52'0 0.0
2018-May-20 10:29N 29°43' W 093°52'0 0.0
2018-May-20 10:00N 29°43' W 093°52'0 0.0
2018-May-20 09:31N 29°43' W 093°52'0 0.0
2018-May-20 09:00N 29°43' W 093°52'0 0.0
2018-May-20 08:31N 29°43' W 093°52'0 0.0
2018-May-20 08:01N 29°43' W 093°52'0 0.0
2018-May-20 07:31N 29°43' W 093°52'0 0.5
2018-May-20 07:00N 29°43' W 093°52'917.8
2018-May-20 06:31N 29°36' W 093°46'6 2.1
2018-May-20 03:50N 29°30' W 093°43'619.3
2018-May-20 03:30N 29°36' W 093°47'816.9
2018-May-20 03:01N 29°43' W 093°52'0 0.0
2018-May-20 02:30N 29°43' W 093°52'0 0.0
2018-May-20 02:00N 29°43' W 093°52'0 0.0
2018-May-20 01:30N 29°43' W 093°52'0 0.0
2018-May-20 01:00N 29°43' W 093°52'0 0.0
2018-May-20 00:30N 29°43' W 093°52'0 0.0
2018-May-20 00:00N 29°43' W 093°52'0 0.0
2018-May-19 23:29N 29°43' W 093°52'0 0.0
2018-May-19 23:00N 29°43' W 093°52'0 0.0
2018-May-19 22:30N 29°43' W 093°52'0 0.0
2018-May-19 22:00N 29°43' W 093°52'0 0.0
2018-May-19 21:30N 29°43' W 093°52'0 0.0
2018-May-19 21:00N 29°43' W 093°52'0 0.0
2018-May-19 20:30N 29°43' W 093°52'0 0.0
2018-May-19 20:00N 29°43' W 093°52'0 0.0
2018-May-19 19:30N 29°43' W 093°52'0 0.0
2018-May-19 19:00N 29°43' W 093°52'0 0.0
2018-May-19 18:30N 29°43' W 093°52'0 0.0
2018-May-19 18:01N 29°43' W 093°52'0 0.0
2018-May-19 17:31N 29°43' W 093°52'0 0.0
2018-May-19 17:00N 29°43' W 093°52'0 0.0
2018-May-19 16:30N 29°43' W 093°52'0 0.0
2018-May-19 16:00N 29°43' W 093°52'0 0.0
2018-May-19 15:27N 29°43' W 093°52'0 0.0
2018-May-19 15:00N 29°43' W 093°52'0 0.0
2018-May-19 14:30N 29°43' W 093°52'0 0.0
2018-May-19 14:00N 29°43' W 093°52'0 0.0
2018-May-19 13:30N 29°43' W 093°52'0 0.0
2018-May-19 13:00N 29°43' W 093°52'0 0.0
2018-May-19 12:29N 29°43' W 093°52'0 0.0
2018-May-19 12:01N 29°43' W 093°52'0 0.0
2018-May-19 11:29N 29°43' W 093°52'0 0.0
2018-May-19 11:00N 29°43' W 093°52'0 0.0
2018-May-19 10:30N 29°43' W 093°52'0 0.0
2018-May-19 09:59N 29°43' W 093°52'0 0.0
2018-May-19 09:28N 29°43' W 093°52'0 0.0
2018-May-19 09:00N 29°43' W 093°52'1 1.8
2018-May-19 08:30N 29°43' W 093°51'918.3
2018-May-19 08:00N 29°35' W 093°46'9 9.6
2018-May-19 07:06N 29°28' W 093°40'411.3
2018-May-19 06:44N 29°31' W 093°42'312.1
2018-May-19 06:27N 29°33' W 093°45'512.0
2018-May-19 06:00N 29°38' W 093°49'612.2
2018-May-19 05:30N 29°43' W 093°52'0 0.0
2018-May-19 05:00N 29°43' W 093°52'611.5
2018-May-19 04:31N 29°38' W 093°49'1 2.1
2018-May-19 04:00N 29°39' W 093°50'5 9.1
2018-May-19 03:30N 29°43' W 093°52'0 0.0
2018-May-19 02:58N 29°43' W 093°52'0 0.0
2018-May-19 02:30N 29°43' W 093°52'0 0.0
2018-May-19 02:00N 29°43' W 093°52'0 0.0
2018-May-19 01:29N 29°43' W 093°52'0 0.0
2018-May-19 01:00N 29°43' W 093°52'0 0.0
2018-May-19 00:29N 29°43' W 093°52'0 0.0
2018-May-19 00:00N 29°43' W 093°52'0 0.0
2018-May-18 23:30N 29°43' W 093°52'0 0.0
2018-May-18 23:00N 29°43' W 093°52'0 0.0
2018-May-18 22:30N 29°43' W 093°52'0 0.0
2018-May-18 21:58N 29°43' W 093°52'0 0.0
2018-May-18 21:30N 29°43' W 093°52'0 0.0
2018-May-18 21:00N 29°43' W 093°52'0 0.0
2018-May-18 20:30N 29°43' W 093°52'0 0.0
2018-May-18 20:00N 29°43' W 093°52'0 0.0
2018-May-18 19:30N 29°43' W 093°52'0 0.0
2018-May-18 19:00N 29°43' W 093°52'0 1.0
2018-May-18 18:31N 29°43' W 093°52'816.7
2018-May-18 18:00N 29°35' W 093°48'816.5
2018-May-18 17:31N 29°43' W 093°51'1 1.2
2018-May-18 17:01N 29°43' W 093°52'0 0.0
2018-May-18 16:30N 29°43' W 093°52'0 0.0
2018-May-18 16:01N 29°43' W 093°52'0 0.0
2018-May-18 15:30N 29°43' W 093°52'0 0.0
2018-May-18 15:00N 29°43' W 093°52'0 0.0
2018-May-18 14:30N 29°43' W 093°52'0 0.0
2018-May-18 14:00N 29°43' W 093°52'0 0.0
2018-May-18 13:30N 29°43' W 093°52'0 0.0
2018-May-18 13:00N 29°43' W 093°52'0 0.0
2018-May-18 12:30N 29°43' W 093°52'0 0.0
2018-May-18 12:00N 29°43' W 093°52'0 0.0
2018-May-18 11:30N 29°43' W 093°52'0 0.0
2018-May-18 11:00N 29°43' W 093°52'0 0.0
2018-May-18 10:30N 29°43' W 093°52'0 0.0
2018-May-18 10:00N 29°43' W 093°52'0 0.0
2018-May-18 09:30N 29°43' W 093°52'0 0.0
2018-May-18 09:00N 29°43' W 093°52'0 0.0
2018-May-18 08:30N 29°43' W 093°52'0 0.0
2018-May-18 08:00N 29°43' W 093°52'0 0.0
2018-May-18 07:30N 29°43' W 093°52'0 0.0
2018-May-18 07:00N 29°43' W 093°52'0 0.0
2018-May-18 06:30N 29°43' W 093°52'0 0.0
2018-May-18 06:00N 29°43' W 093°52'0 0.0
2018-May-18 05:30N 29°43' W 093°52'0 0.0
2018-May-18 05:00N 29°43' W 093°52'0 0.0
2018-May-18 04:30N 29°43' W 093°52'0 0.0
2018-May-18 04:00N 29°43' W 093°52'0 0.0
2018-May-18 03:30N 29°43' W 093°52'0 0.0
2018-May-18 03:00N 29°43' W 093°52'0 0.0
2018-May-18 02:30N 29°43' W 093°52'0 0.0
2018-May-18 02:00N 29°43' W 093°52'0 0.0
2018-May-18 01:30N 29°43' W 093°52'0 0.0
2018-May-18 01:00N 29°43' W 093°52'0 0.0
2018-May-18 00:30N 29°43' W 093°52'0 0.0
2018-May-18 00:00N 29°43' W 093°52'0 0.0
2018-May-17 23:30N 29°43' W 093°52'0 0.0
2018-May-17 22:57N 29°43' W 093°52'0 0.0
2018-May-17 22:30N 29°43' W 093°52'0 0.0
2018-May-17 22:00N 29°43' W 093°52'0 0.0
2018-May-17 21:30N 29°43' W 093°52'0 0.0
2018-May-17 21:00N 29°43' W 093°52'0 0.0
2018-May-17 20:30N 29°43' W 093°52'2 3.3
2018-May-17 20:00N 29°42' W 093°51'1019.1
2018-May-17 19:30N 29°34' W 093°45'4 5.7
2018-May-17 18:48N 29°31' W 093°42'311.4
2018-May-17 18:30N 29°33' W 093°45'510.9
2018-May-17 18:00N 29°37' W 093°49'510.2
2018-May-17 17:30N 29°42' W 093°51'2 3.0
2018-May-17 16:58N 29°43' W 093°52'0 0.0
2018-May-17 16:30N 29°43' W 093°52'815.7
2018-May-17 16:00N 29°36' W 093°48'510.4
2018-May-17 15:30N 29°41' W 093°50'0 0.4
2018-May-17 15:00N 29°41' W 093°50'0 0.3
2018-May-17 14:30N 29°41' W 093°50'3 6.4
2018-May-17 14:01N 29°38' W 093°49'0 1.0
2018-May-17 13:30N 29°38' W 093°48'0 0.5
2018-May-17 13:01N 29°38' W 093°49'4 7.6
2018-May-17 12:31N 29°35' W 093°46'918.8
2018-May-17 12:00N 29°43' W 093°51'0 1.0
2018-May-17 11:30N 29°43' W 093°52'0 0.0
2018-May-17 10:58N 29°43' W 093°52'0 0.0
2018-May-17 10:30N 29°43' W 093°52'0 0.0
2018-May-17 09:59N 29°43' W 093°52'0 0.0
2018-May-17 09:31N 29°43' W 093°52'0 0.0
2018-May-17 09:00N 29°43' W 093°52'0 0.0
2018-May-17 08:30N 29°43' W 093°52'0 0.0
2018-May-17 07:57N 29°43' W 093°52'0 0.0
2018-May-17 07:28N 29°43' W 093°52'0 0.0
2018-May-17 07:00N 29°43' W 093°52'0 0.0
2018-May-17 06:30N 29°43' W 093°52'0 0.0
2018-May-17 06:00N 29°43' W 093°52'0 0.0
2018-May-17 05:30N 29°43' W 093°52'0 0.0
2018-May-17 05:00N 29°43' W 093°52'0 0.0
2018-May-17 04:30N 29°43' W 093°52'0 0.0
2018-May-17 04:00N 29°43' W 093°52'0 0.0
2018-May-17 03:30N 29°43' W 093°52'0 0.0
2018-May-17 03:00N 29°43' W 093°52'0 0.0
2018-May-17 02:30N 29°43' W 093°52'612.6
2018-May-17 02:00N 29°38' W 093°49'5 9.5
2018-May-17 01:30N 29°42' W 093°51'2 3.1
2018-May-17 01:00N 29°43' W 093°52'0 0.0
2018-May-17 00:30N 29°43' W 093°52'0 0.0
2018-May-17 00:00N 29°43' W 093°52'0 0.0
2018-May-16 23:30N 29°43' W 093°52'714.7
2018-May-16 23:00N 29°36' W 093°49'510.4
2018-May-16 22:30N 29°41' W 093°50'2 4.5
2018-May-16 22:00N 29°43' W 093°52'0 0.0
2018-May-16 21:31N 29°43' W 093°52'0 0.0
2018-May-16 21:00N 29°43' W 093°52'0 0.0
2018-May-16 20:31N 29°43' W 093°52'0 0.0
2018-May-16 20:01N 29°43' W 093°52'0 0.0
2018-May-16 19:31N 29°43' W 093°52'0 0.0
2018-May-16 19:00N 29°43' W 093°52'0 0.0
2018-May-16 18:30N 29°43' W 093°52'0 0.0
2018-May-16 18:00N 29°43' W 093°52'713.2
2018-May-16 17:28N 29°37' W 093°49'612.3
2018-May-16 16:59N 29°32' W 093°45'612.1
2018-May-16 16:30N 29°28' W 093°40'611.5
2018-May-16 16:00N 29°32' W 093°44'612.0
2018-May-16 15:30N 29°37' W 093°49'510.9
2018-May-16 15:00N 29°42' W 093°51'2 3.6
2018-May-16 14:30N 29°43' W 093°52'0 0.0
2018-May-16 13:59N 29°43' W 093°52'0 0.0
2018-May-16 13:30N 29°43' W 093°52'0 0.0
2018-May-16 13:00N 29°43' W 093°52'0 0.0
2018-May-16 12:30N 29°43' W 093°52'0 0.0
2018-May-16 12:00N 29°43' W 093°52'0 0.0
2018-May-16 11:29N 29°43' W 093°52'0 0.0
2018-May-16 11:00N 29°43' W 093°52'0 0.0
2018-May-16 10:21N 29°43' W 093°52'0 0.0
2018-May-16 10:00N 29°43' W 093°52'0 0.0
2018-May-16 09:30N 29°43' W 093°52'0 0.0
2018-May-16 08:59N 29°43' W 093°52'0 0.0
2018-May-16 08:30N 29°43' W 093°52'3 5.7
2018-May-16 08:00N 29°41' W 093°50'1019.5
2018-May-16 07:30N 29°32' W 093°45'815.3
2018-May-16 07:00N 29°25' W 093°41'714.3
2018-May-16 06:31N 29°32' W 093°44'1121.1
2018-May-16 06:00N 29°41' W 093°50'2 3.8
2018-May-16 05:30N 29°39' W 093°50'0 0.5
2018-May-16 05:00N 29°39' W 093°50'4 8.5
2018-May-16 04:30N 29°43' W 093°52'0 0.0
2018-May-16 04:00N 29°43' W 093°52'0 0.0
2018-May-16 03:30N 29°43' W 093°52'0 0.0
2018-May-16 03:01N 29°43' W 093°52'0 0.0
2018-May-16 02:30N 29°43' W 093°52'4 7.2
2018-May-16 02:00N 29°40' W 093°50'2 4.5
2018-May-16 01:30N 29°38' W 093°49'3 5.6
2018-May-16 01:00N 29°36' W 093°47'3 6.2
2018-May-16 00:30N 29°38' W 093°49'611.4
2018-May-16 00:00N 29°43' W 093°52'0 0.0
2018-May-15 23:27N 29°43' W 093°52'0 0.0
2018-May-15 22:59N 29°43' W 093°52'0 0.0
2018-May-15 22:30N 29°43' W 093°52'0 0.0
2018-May-15 22:00N 29°43' W 093°52'0 0.0
2018-May-15 21:30N 29°43' W 093°52'0 0.0
2018-May-15 21:00N 29°43' W 093°52'0 0.0
2018-May-15 20:30N 29°43' W 093°52'0 0.0
2018-May-15 20:00N 29°43' W 093°52'0 0.0
2018-May-15 19:30N 29°43' W 093°52'0 0.0
2018-May-15 19:00N 29°43' W 093°52'0 0.0
2018-May-15 18:30N 29°43' W 093°52'0 0.0
2018-May-15 18:00N 29°43' W 093°52'0 0.0
2018-May-15 17:30N 29°43' W 093°52'0 0.0
2018-May-15 17:00N 29°43' W 093°52'0 0.0
2018-May-15 16:30N 29°43' W 093°52'0 0.0
2018-May-15 15:59N 29°43' W 093°52'0 0.1
2018-May-15 15:30N 29°43' W 093°52'0 0.1
2018-May-15 15:00N 29°43' W 093°52'0 0.0
2018-May-15 14:30N 29°43' W 093°52'0 0.0
2018-May-15 14:00N 29°43' W 093°52'0 0.0
2018-May-15 13:30N 29°43' W 093°52'0 0.0
2018-May-15 13:01N 29°43' W 093°52'0 0.0
2018-May-15 12:24N 29°43' W 093°52'0 0.0
2018-May-15 12:00N 29°43' W 093°52'0 0.0
2018-May-15 11:30N 29°43' W 093°52'0 0.0
2018-May-15 11:00N 29°43' W 093°52'0 0.0
2018-May-15 10:30N 29°43' W 093°52'0 0.0
2018-May-15 10:00N 29°43' W 093°52'0 0.0
2018-May-15 09:30N 29°43' W 093°52'0 0.0
2018-May-15 09:00N 29°43' W 093°52'0 0.0
2018-May-15 08:30N 29°43' W 093°52'0 0.0
2018-May-15 08:00N 29°43' W 093°52'0 0.6
2018-May-15 07:30N 29°43' W 093°52'918.8
2018-May-15 07:00N 29°35' W 093°47'1119.7
2018-May-15 06:28N 29°26' W 093°40'1 2.7
2018-May-15 05:58N 29°27' W 093°40'1 1.5
2018-May-15 05:28N 29°26' W 093°41'919.2
2018-May-15 05:00N 29°34' W 093°46'918.2
2018-May-15 04:30N 29°42' W 093°51'2 3.1
2018-May-15 04:00N 29°43' W 093°52'0 0.0
2018-May-15 03:31N 29°43' W 093°52'0 0.0
2018-May-15 03:00N 29°43' W 093°52'0 0.0
2018-May-15 02:30N 29°43' W 093°52'0 0.0
2018-May-15 01:59N 29°43' W 093°52'0 0.0
2018-May-15 01:31N 29°43' W 093°52'0 0.0
2018-May-15 01:01N 29°43' W 093°52'0 0.0
2018-May-15 00:31N 29°43' W 093°52'0 0.0
2018-May-15 00:00N 29°43' W 093°52'0 0.0
2018-May-14 23:30N 29°43' W 093°52'0 0.0
2018-May-14 23:00N 29°43' W 093°52'0 0.0
2018-May-14 22:30N 29°43' W 093°52'0 0.0
2018-May-14 22:00N 29°43' W 093°52'0 0.0
2018-May-14 21:30N 29°43' W 093°52'0 0.0
2018-May-14 21:00N 29°43' W 093°52'0 0.0
2018-May-14 20:28N 29°43' W 093°52'0 0.0
2018-May-14 20:00N 29°43' W 093°52'0 0.0
2018-May-14 19:30N 29°43' W 093°52'0 0.0
2018-May-14 19:00N 29°43' W 093°52'0 0.0
2018-May-14 18:30N 29°43' W 093°52'0 0.0
2018-May-14 17:59N 29°43' W 093°52'0 0.0
2018-May-14 17:30N 29°43' W 093°52'0 0.0
2018-May-14 17:00N 29°43' W 093°52'0 0.0
2018-May-14 16:27N 29°43' W 093°52'0 0.0
2018-May-14 16:00N 29°43' W 093°52'0 0.0
2018-May-14 15:29N 29°43' W 093°52'0 0.0
2018-May-14 15:00N 29°43' W 093°52'0 0.0
2018-May-14 14:28N 29°43' W 093°52'0 0.0
2018-May-14 14:00N 29°43' W 093°52'0 0.0
2018-May-14 13:30N 29°43' W 093°52'0 0.0
2018-May-14 13:00N 29°43' W 093°52'0 0.0
2018-May-14 12:24N 29°43' W 093°52'0 0.0
2018-May-14 12:00N 29°43' W 093°52'0 0.0
2018-May-14 11:29N 29°43' W 093°52'0 0.0
2018-May-14 11:00N 29°43' W 093°52'0 0.0
2018-May-14 10:30N 29°43' W 093°52'0 0.0
2018-May-14 10:00N 29°43' W 093°52'0 0.0
2018-May-14 09:30N 29°43' W 093°52'0 0.0
2018-May-14 09:00N 29°43' W 093°52'0 0.0
2018-May-14 08:30N 29°43' W 093°52'0 0.0
2018-May-14 08:00N 29°43' W 093°52'0 0.0
2018-May-14 07:30N 29°43' W 093°52'0 0.0
2018-May-14 07:00N 29°43' W 093°52'0 0.0
2018-May-14 06:30N 29°43' W 093°52'0 0.0
2018-May-14 06:01N 29°43' W 093°52'0 0.0
2018-May-14 05:30N 29°43' W 093°52'0 0.0
2018-May-14 05:00N 29°43' W 093°52'0 0.0
2018-May-14 04:31N 29°43' W 093°52'0 0.0
2018-May-14 04:00N 29°43' W 093°52'0 0.0
2018-May-14 03:29N 29°43' W 093°52'0 0.0
2018-May-14 02:59N 29°43' W 093°52'0 0.0
2018-May-14 02:29N 29°43' W 093°52'0 0.0
2018-May-14 02:00N 29°43' W 093°52'0 0.0
2018-May-14 01:30N 29°43' W 093°52'0 0.0
2018-May-14 01:00N 29°43' W 093°52'0 0.0
2018-May-14 00:30N 29°43' W 093°52'0 0.0
2018-May-14 00:00N 29°43' W 093°52'0 0.0
2018-May-13 23:28N 29°43' W 093°52'0 0.0
2018-May-13 23:00N 29°43' W 093°52'0 0.0
2018-May-13 22:30N 29°43' W 093°52'0 0.0
2018-May-13 22:00N 29°43' W 093°52'0 0.0
2018-May-13 21:30N 29°43' W 093°52'0 0.0
2018-May-13 21:00N 29°43' W 093°52'0 0.0
2018-May-13 20:30N 29°43' W 093°52'0 0.0
2018-May-13 20:00N 29°43' W 093°52'0 0.0
2018-May-13 19:30N 29°43' W 093°52'0 0.0
2018-May-13 19:00N 29°43' W 093°52'0 0.0
2018-May-13 18:30N 29°43' W 093°52'0 0.0
2018-May-13 18:00N 29°43' W 093°52'0 0.0
2018-May-13 17:30N 29°43' W 093°52'0 0.0
2018-May-13 17:00N 29°43' W 093°52'0 0.0
2018-May-13 16:30N 29°43' W 093°52'0 0.0
2018-May-13 16:00N 29°43' W 093°52'0 0.0
2018-May-13 15:30N 29°43' W 093°52'0 0.0
2018-May-13 15:00N 29°43' W 093°52'0 0.0
2018-May-13 14:30N 29°43' W 093°52'0 0.0
2018-May-13 14:00N 29°43' W 093°52'0 0.0
2018-May-13 13:30N 29°43' W 093°52'0 0.0
2018-May-13 13:00N 29°43' W 093°52'0 0.0
2018-May-13 12:30N 29°43' W 093°52'0 0.0
2018-May-13 11:59N 29°43' W 093°52'0 0.0
2018-May-13 11:29N 29°43' W 093°52'0 0.0
2018-May-13 10:59N 29°43' W 093°52'0 0.0
2018-May-13 10:27N 29°43' W 093°52'0 0.0
2018-May-13 10:00N 29°43' W 093°52'0 0.0
2018-May-13 09:30N 29°43' W 093°52'0 0.0
2018-May-13 08:58N 29°43' W 093°52'0 0.0
2018-May-13 08:30N 29°43' W 093°52'0 0.0
2018-May-13 08:00N 29°43' W 093°52'0 0.0
2018-May-13 07:30N 29°43' W 093°52'0 0.0
2018-May-13 07:00N 29°43' W 093°52'0 0.0
2018-May-13 06:30N 29°43' W 093°52'0 0.0
2018-May-13 06:00N 29°43' W 093°52'0 0.0
2018-May-13 05:30N 29°43' W 093°52'0 0.0
2018-May-13 05:00N 29°43' W 093°52'0 0.0
2018-May-13 04:30N 29°43' W 093°52'0 0.0
2018-May-13 04:00N 29°43' W 093°52'0 0.0
2018-May-13 03:27N 29°43' W 093°52'0 0.0
2018-May-13 03:00N 29°43' W 093°52'0 0.0
2018-May-13 02:30N 29°43' W 093°52'0 0.0
2018-May-13 01:59N 29°43' W 093°52'0 0.0
2018-May-13 01:30N 29°43' W 093°52'0 0.0
2018-May-13 01:00N 29°43' W 093°52'0 0.0
2018-May-13 00:30N 29°43' W 093°52'0 0.0
2018-May-12 23:59N 29°43' W 093°52'0 0.0
2018-May-12 23:30N 29°43' W 093°52'0 0.0
2018-May-12 22:59N 29°43' W 093°52'0 0.0
2018-May-12 22:30N 29°43' W 093°52'0 0.0
2018-May-12 21:56N 29°43' W 093°52'0 0.0
2018-May-12 21:29N 29°43' W 093°52'0 0.0
2018-May-12 20:59N 29°43' W 093°52'0 0.0
2018-May-12 20:30N 29°43' W 093°52'0 0.0
2018-May-12 20:00N 29°43' W 093°52'0 0.0
2018-May-12 19:29N 29°43' W 093°52'0 0.0
2018-May-12 19:00N 29°43' W 093°52'0 0.0
2018-May-12 18:30N 29°43' W 093°52'0 0.0
2018-May-12 18:00N 29°43' W 093°52'0 0.0
2018-May-12 17:30N 29°43' W 093°52'0 0.0
2018-May-12 17:00N 29°43' W 093°52'0 0.0
2018-May-12 16:30N 29°43' W 093°52'0 0.0
2018-May-12 16:00N 29°43' W 093°52'0 0.0
2018-May-12 15:30N 29°43' W 093°52'2 4.3
2018-May-12 15:00N 29°42' W 093°50'713.7
2018-May-12 14:30N 29°35' W 093°47'816.2
2018-May-12 14:01N 29°43' W 093°51'1 1.8
2018-May-12 13:30N 29°43' W 093°52'0 0.0
2018-May-12 12:59N 29°43' W 093°52'0 0.0
2018-May-12 12:28N 29°43' W 093°52'0 0.0
2018-May-12 12:00N 29°43' W 093°52'0 0.0
2018-May-12 11:30N 29°43' W 093°52'0 0.0
2018-May-12 11:00N 29°43' W 093°52'5 9.3
2018-May-12 10:31N 29°39' W 093°50'611.0
2018-May-12 10:01N 29°35' W 093°45'917.3
2018-May-12 09:30N 29°42' W 093°51'1 2.5
2018-May-12 09:00N 29°43' W 093°52'0 0.0
2018-May-12 08:30N 29°43' W 093°52'0 0.0
2018-May-12 08:00N 29°43' W 093°52'0 0.0
2018-May-12 07:30N 29°43' W 093°52'0 0.0
2018-May-12 07:00N 29°43' W 093°52'0 0.0
2018-May-12 06:30N 29°43' W 093°52'0 0.0
2018-May-12 06:00N 29°43' W 093°52'0 0.0
2018-May-12 05:30N 29°43' W 093°52'815.8
2018-May-12 05:00N 29°36' W 093°48'4 7.8
2018-May-12 04:30N 29°40' W 093°50'4 7.9
2018-May-12 04:00N 29°43' W 093°52'0 0.0
2018-May-12 03:30N 29°43' W 093°52'2 4.3
2018-May-12 03:00N 29°42' W 093°50'0 0.5
2018-May-12 02:30N 29°41' W 093°50'2 4.8
2018-May-12 02:00N 29°43' W 093°52'0 0.0
2018-May-12 01:29N 29°43' W 093°52'0 0.0
2018-May-12 01:00N 29°43' W 093°52'0 0.0
2018-May-12 00:29N 29°43' W 093°52'0 0.0
2018-May-12 00:00N 29°43' W 093°52'0 0.0
2018-May-11 23:29N 29°43' W 093°52'0 0.0
2018-May-11 22:59N 29°43' W 093°52'0 0.0
2018-May-11 22:30N 29°43' W 093°52'0 0.0
2018-May-11 22:00N 29°43' W 093°52'0 0.0
2018-May-11 21:30N 29°43' W 093°52'1 1.3
2018-May-11 21:01N 29°43' W 093°51'714.1
2018-May-11 20:30N 29°36' W 093°48'1320.2
2018-May-11 19:52N 29°25' W 093°40'0 0.4
2018-May-11 19:14N 29°25' W 093°40'414.6
2018-May-11 18:56N 29°28' W 093°43'819.8
2018-May-11 18:30N 29°36' W 093°48'816.3
2018-May-11 18:00N 29°43' W 093°52'815.9
2018-May-11 17:31N 29°36' W 093°48'5 9.9
2018-May-11 17:00N 29°41' W 093°50'3 6.0
2018-May-11 16:30N 29°43' W 093°52'0 0.0
2018-May-11 15:59N 29°43' W 093°52'0 0.0
2018-May-11 15:30N 29°43' W 093°52'0 0.0
2018-May-11 15:00N 29°43' W 093°52'0 0.0
2018-May-11 14:30N 29°43' W 093°52'0 0.0
2018-May-11 14:00N 29°43' W 093°52'0 0.0
2018-May-11 13:30N 29°43' W 093°52'0 0.0
2018-May-11 13:00N 29°43' W 093°52'0 0.0
2018-May-11 12:30N 29°43' W 093°52'0 0.0
2018-May-11 11:59N 29°43' W 093°52'0 0.0
2018-May-11 11:29N 29°43' W 093°52'0 0.0
2018-May-11 11:00N 29°43' W 093°52'0 0.0
2018-May-11 10:28N 29°43' W 093°52'3 5.6
2018-May-11 10:00N 29°41' W 093°50'5 9.5
2018-May-11 09:30N 29°37' W 093°49'5 9.9
2018-May-11 09:01N 29°41' W 093°50'2 4.8
2018-May-11 08:30N 29°43' W 093°52'0 0.0
2018-May-11 08:00N 29°43' W 093°52'0 0.0
2018-May-11 07:30N 29°43' W 093°52'0 0.0
2018-May-11 07:00N 29°43' W 093°52'0 0.0
2018-May-11 06:30N 29°43' W 093°52'0 0.0
2018-May-11 06:00N 29°43' W 093°52'0 0.0
2018-May-11 05:30N 29°43' W 093°52'0 0.0
2018-May-11 05:00N 29°43' W 093°52'0 0.0
2018-May-11 04:30N 29°43' W 093°52'0 0.0
2018-May-11 04:00N 29°43' W 093°52'0 0.0
2018-May-11 03:28N 29°43' W 093°52'0 0.0
2018-May-11 03:00N 29°43' W 093°52'0 0.0
2018-May-11 02:28N 29°43' W 093°52'0 0.0
2018-May-11 02:00N 29°43' W 093°52'0 0.0
2018-May-11 01:29N 29°43' W 093°52'0 0.0
2018-May-11 01:00N 29°43' W 093°52'0 0.0
2018-May-11 00:30N 29°43' W 093°52'0 0.0
2018-May-10 23:58N 29°43' W 093°52'0 0.0
2018-May-10 23:30N 29°43' W 093°52'0 0.0
2018-May-10 23:00N 29°43' W 093°52'0 0.0
2018-May-10 22:30N 29°43' W 093°52'0 0.0
2018-May-10 22:00N 29°43' W 093°52'  
Track history (hours):
 
Tides and Currents Weather Stations Pressure Air Temp Water Temp Dewpoint Dewpoint Depression Visibility Wind Speed Wind Dir Waves Ship Positions

Sabine Pilot

Owner: SABINE PILOT SERVICE INC, GROVES, TX. More information available from US FCC via Universal Licensing System and Coast Guard Vessel Documentation Center.

Last reported at 2018-May-20 21:31 UTC. Time now 2018-May-20 21:47 UTC.
Position N 29°43' W 093°52'.

Length 21 m; draft 1.5 m.

Type: Pilot. MMSI: 366896250.

Date/timePositionNaut miles runAvg speedWind from/ knotsBaromVisibWave heightAir tempDewpointWater temp
2018-May-20 21:31N 29°43' W 093°52'0 0.0
2018-May-20 21:00N 29°43' W 093°52'0 0.3
2018-May-20 20:30N 29°43' W 093°52'612.3
2018-May-20 20:00N 29°38' W 093°49'611.6
2018-May-20 19:30N 29°33' W 093°45'811.3
2018-May-20 18:47N 29°26' W 093°40'612.1
2018-May-20 18:19N 29°31' W 093°42'619.1
2018-May-20 18:00N 29°35' W 093°47'918.1
2018-May-20 17:31N 29°43' W 093°52'816.2
2018-May-20 17:00N 29°36' W 093°48'3 5.7
2018-May-20 16:31N 29°33' W 093°46'814.6
2018-May-20 15:56N 29°27' W 093°40'511.7
2018-May-20 15:30N 29°31' W 093°43'612.9
2018-May-20 15:00N 29°36' W 093°48'611.1
2018-May-20 14:30N 29°41' W 093°50'3 5.4
2018-May-20 14:00N 29°43' W 093°52'0 0.0
2018-May-20 13:30N 29°43' W 093°52'0 0.0
2018-May-20 13:00N 29°43' W 093°52'0 0.0
2018-May-20 12:30N 29°43' W 093°52'0 0.0
2018-May-20 12:00N 29°43' W 093°52'0 0.0
2018-May-20 11:30N 29°43' W 093°52'0 0.0
2018-May-20 11:00N 29°43' W 093°52'0 0.0
2018-May-20 10:29N 29°43' W 093°52'0 0.0
2018-May-20 10:00N 29°43' W 093°52'0 0.0
2018-May-20 09:31N 29°43' W 093°52'0 0.0
2018-May-20 09:00N 29°43' W 093°52'0 0.0
2018-May-20 08:31N 29°43' W 093°52'0 0.0
2018-May-20 08:01N 29°43' W 093°52'0 0.0
2018-May-20 07:31N 29°43' W 093°52'0 0.5
2018-May-20 07:00N 29°43' W 093°52'917.8
2018-May-20 06:31N 29°36' W 093°46'6 2.1
2018-May-20 03:50N 29°30' W 093°43'619.3
2018-May-20 03:30N 29°36' W 093°47'816.9
2018-May-20 03:01N 29°43' W 093°52'0 0.0
2018-May-20 02:30N 29°43' W 093°52'0 0.0
2018-May-20 02:00N 29°43' W 093°52'0 0.0
2018-May-20 01:30N 29°43' W 093°52'0 0.0
2018-May-20 01:00N 29°43' W 093°52'0 0.0
2018-May-20 00:30N 29°43' W 093°52'0 0.0
2018-May-20 00:00N 29°43' W 093°52'0 0.0
2018-May-19 23:29N 29°43' W 093°52'0 0.0
2018-May-19 23:00N 29°43' W 093°52'0 0.0
2018-May-19 22:30N 29°43' W 093°52'0 0.0
2018-May-19 22:00N 29°43' W 093°52'0 0.0
2018-May-19 21:30N 29°43' W 093°52'0 0.0
2018-May-19 21:00N 29°43' W 093°52'0 0.0
2018-May-19 20:30N 29°43' W 093°52'0 0.0
2018-May-19 20:00N 29°43' W 093°52'0 0.0
2018-May-19 19:30N 29°43' W 093°52'0 0.0
2018-May-19 19:00N 29°43' W 093°52'0 0.0
2018-May-19 18:30N 29°43' W 093°52'0 0.0
2018-May-19 18:01N 29°43' W 093°52'0 0.0
2018-May-19 17:31N 29°43' W 093°52'0 0.0
2018-May-19 17:00N 29°43' W 093°52'0 0.0
2018-May-19 16:30N 29°43' W 093°52'0 0.0
2018-May-19 16:00N 29°43' W 093°52'0 0.0
2018-May-19 15:27N 29°43' W 093°52'0 0.0
2018-May-19 15:00N 29°43' W 093°52'0 0.0
2018-May-19 14:30N 29°43' W 093°52'0 0.0
2018-May-19 14:00N 29°43' W 093°52'0 0.0
2018-May-19 13:30N 29°43' W 093°52'0 0.0
2018-May-19 13:00N 29°43' W 093°52'0 0.0
2018-May-19 12:29N 29°43' W 093°52'0 0.0
2018-May-19 12:01N 29°43' W 093°52'0 0.0
2018-May-19 11:29N 29°43' W 093°52'0 0.0
2018-May-19 11:00N 29°43' W 093°52'0 0.0
2018-May-19 10:30N 29°43' W 093°52'0 0.0
2018-May-19 09:59N 29°43' W 093°52'0 0.0
2018-May-19 09:28N 29°43' W 093°52'0 0.0
2018-May-19 09:00N 29°43' W 093°52'1 1.8
2018-May-19 08:30N 29°43' W 093°51'918.3
2018-May-19 08:00N 29°35' W 093°46'9 9.6
2018-May-19 07:06N 29°28' W 093°40'411.3
2018-May-19 06:44N 29°31' W 093°42'312.1
2018-May-19 06:27N 29°33' W 093°45'512.0
2018-May-19 06:00N 29°38' W 093°49'612.2
2018-May-19 05:30N 29°43' W 093°52'0 0.0
2018-May-19 05:00N 29°43' W 093°52'611.5
2018-May-19 04:31N 29°38' W 093°49'1 2.1
2018-May-19 04:00N 29°39' W 093°50'5 9.1
2018-May-19 03:30N 29°43' W 093°52'0 0.0
2018-May-19 02:58N 29°43' W 093°52'0 0.0
2018-May-19 02:30N 29°43' W 093°52'0 0.0
2018-May-19 02:00N 29°43' W 093°52'0 0.0
2018-May-19 01:29N 29°43' W 093°52'0 0.0
2018-May-19 01:00N 29°43' W 093°52'0 0.0
2018-May-19 00:29N 29°43' W 093°52'0 0.0
2018-May-19 00:00N 29°43' W 093°52'0 0.0
2018-May-18 23:30N 29°43' W 093°52'0 0.0
2018-May-18 23:00N 29°43' W 093°52'0 0.0
2018-May-18 22:30N 29°43' W 093°52'0 0.0
2018-May-18 21:58N 29°43' W 093°52'0 0.0
2018-May-18 21:30N 29°43' W 093°52'0 0.0
2018-May-18 21:00N 29°43' W 093°52'0 0.0
2018-May-18 20:30N 29°43' W 093°52'0 0.0
2018-May-18 20:00N 29°43' W 093°52'0 0.0
2018-May-18 19:30N 29°43' W 093°52'0 0.0
2018-May-18 19:00N 29°43' W 093°52'0 1.0
2018-May-18 18:31N 29°43' W 093°52'816.7
2018-May-18 18:00N 29°35' W 093°48'816.5
2018-May-18 17:31N 29°43' W 093°51'1 1.2
2018-May-18 17:01N 29°43' W 093°52'0 0.0
2018-May-18 16:30N 29°43' W 093°52'0 0.0
2018-May-18 16:01N 29°43' W 093°52'0 0.0
2018-May-18 15:30N 29°43' W 093°52'0 0.0
2018-May-18 15:00N 29°43' W 093°52'0 0.0
2018-May-18 14:30N 29°43' W 093°52'0 0.0
2018-May-18 14:00N 29°43' W 093°52'0 0.0
2018-May-18 13:30N 29°43' W 093°52'0 0.0
2018-May-18 13:00N 29°43' W 093°52'0 0.0
2018-May-18 12:30N 29°43' W 093°52'0 0.0
2018-May-18 12:00N 29°43' W 093°52'0 0.0
2018-May-18 11:30N 29°43' W 093°52'0 0.0
2018-May-18 11:00N 29°43' W 093°52'0 0.0
2018-May-18 10:30N 29°43' W 093°52'0 0.0
2018-May-18 10:00N 29°43' W 093°52'0 0.0
2018-May-18 09:30N 29°43' W 093°52'0 0.0
2018-May-18 09:00N 29°43' W 093°52'0 0.0
2018-May-18 08:30N 29°43' W 093°52'0 0.0
2018-May-18 08:00N 29°43' W 093°52'0 0.0
2018-May-18 07:30N 29°43' W 093°52'0 0.0
2018-May-18 07:00N 29°43' W 093°52'0 0.0
2018-May-18 06:30N 29°43' W 093°52'0 0.0
2018-May-18 06:00N 29°43' W 093°52'0 0.0
2018-May-18 05:30N 29°43' W 093°52'0 0.0
2018-May-18 05:00N 29°43' W 093°52'0 0.0
2018-May-18 04:30N 29°43' W 093°52'0 0.0
2018-May-18 04:00N 29°43' W 093°52'0 0.0
2018-May-18 03:30N 29°43' W 093°52'0 0.0
2018-May-18 03:00N 29°43' W 093°52'0 0.0
2018-May-18 02:30N 29°43' W 093°52'0 0.0
2018-May-18 02:00N 29°43' W 093°52'0 0.0
2018-May-18 01:30N 29°43' W 093°52'0 0.0
2018-May-18 01:00N 29°43' W 093°52'0 0.0
2018-May-18 00:30N 29°43' W 093°52'0 0.0
2018-May-18 00:00N 29°43' W 093°52'0 0.0
2018-May-17 23:30N 29°43' W 093°52'0 0.0
2018-May-17 22:57N 29°43' W 093°52'0 0.0
2018-May-17 22:30N 29°43' W 093°52'0 0.0
2018-May-17 22:00N 29°43' W 093°52'0 0.0
2018-May-17 21:30N 29°43' W 093°52'0 0.0
2018-May-17 21:00N 29°43' W 093°52'0 0.0
2018-May-17 20:30N 29°43' W 093°52'2 3.3
2018-May-17 20:00N 29°42' W 093°51'1019.1
2018-May-17 19:30N 29°34' W 093°45'4 5.7
2018-May-17 18:48N 29°31' W 093°42'311.4
2018-May-17 18:30N 29°33' W 093°45'510.9
2018-May-17 18:00N 29°37' W 093°49'510.2
2018-May-17 17:30N 29°42' W 093°51'2 3.0
2018-May-17 16:58N 29°43' W 093°52'0 0.0
2018-May-17 16:30N 29°43' W 093°52'815.7
2018-May-17 16:00N 29°36' W 093°48'510.4
2018-May-17 15:30N 29°41' W 093°50'0 0.4
2018-May-17 15:00N 29°41' W 093°50'0 0.3
2018-May-17 14:30N 29°41' W 093°50'3 6.4
2018-May-17 14:01N 29°38' W 093°49'0 1.0
2018-May-17 13:30N 29°38' W 093°48'0 0.5
2018-May-17 13:01N 29°38' W 093°49'4 7.6
2018-May-17 12:31N 29°35' W 093°46'918.8
2018-May-17 12:00N 29°43' W 093°51'0 1.0
2018-May-17 11:30N 29°43' W 093°52'0 0.0
2018-May-17 10:58N 29°43' W 093°52'0 0.0
2018-May-17 10:30N 29°43' W 093°52'0 0.0
2018-May-17 09:59N 29°43' W 093°52'0 0.0
2018-May-17 09:31N 29°43' W 093°52'0 0.0
2018-May-17 09:00N 29°43' W 093°52'0 0.0
2018-May-17 08:30N 29°43' W 093°52'0 0.0
2018-May-17 07:57N 29°43' W 093°52'0 0.0
2018-May-17 07:28N 29°43' W 093°52'0 0.0
2018-May-17 07:00N 29°43' W 093°52'0 0.0
2018-May-17 06:30N 29°43' W 093°52'0 0.0
2018-May-17 06:00N 29°43' W 093°52'0 0.0
2018-May-17 05:30N 29°43' W 093°52'0 0.0
2018-May-17 05:00N 29°43' W 093°52'0 0.0
2018-May-17 04:30N 29°43' W 093°52'0 0.0
2018-May-17 04:00N 29°43' W 093°52'0 0.0
2018-May-17 03:30N 29°43' W 093°52'0 0.0
2018-May-17 03:00N 29°43' W 093°52'0 0.0
2018-May-17 02:30N 29°43' W 093°52'612.6
2018-May-17 02:00N 29°38' W 093°49'5 9.5
2018-May-17 01:30N 29°42' W 093°51'2 3.1
2018-May-17 01:00N 29°43' W 093°52'0 0.0
2018-May-17 00:30N 29°43' W 093°52'0 0.0
2018-May-17 00:00N 29°43' W 093°52'0 0.0
2018-May-16 23:30N 29°43' W 093°52'714.7
2018-May-16 23:00N 29°36' W 093°49'510.4
2018-May-16 22:30N 29°41' W 093°50'2 4.5
2018-May-16 22:00N 29°43' W 093°52'0 0.0
2018-May-16 21:31N 29°43' W 093°52'0 0.0
2018-May-16 21:00N 29°43' W 093°52'0 0.0
2018-May-16 20:31N 29°43' W 093°52'0 0.0
2018-May-16 20:01N 29°43' W 093°52'0 0.0
2018-May-16 19:31N 29°43' W 093°52'0 0.0
2018-May-16 19:00N 29°43' W 093°52'0 0.0
2018-May-16 18:30N 29°43' W 093°52'0 0.0
2018-May-16 18:00N 29°43' W 093°52'713.2
2018-May-16 17:28N 29°37' W 093°49'612.3
2018-May-16 16:59N 29°32' W 093°45'612.1
2018-May-16 16:30N 29°28' W 093°40'611.5
2018-May-16 16:00N 29°32' W 093°44'612.0
2018-May-16 15:30N 29°37' W 093°49'510.9
2018-May-16 15:00N 29°42' W 093°51'2 3.6
2018-May-16 14:30N 29°43' W 093°52'0 0.0
2018-May-16 13:59N 29°43' W 093°52'0 0.0
2018-May-16 13:30N 29°43' W 093°52'0 0.0
2018-May-16 13:00N 29°43' W 093°52'0 0.0
2018-May-16 12:30N 29°43' W 093°52'0 0.0
2018-May-16 12:00N 29°43' W 093°52'0 0.0
2018-May-16 11:29N 29°43' W 093°52'0 0.0
2018-May-16 11:00N 29°43' W 093°52'0 0.0
2018-May-16 10:21N 29°43' W 093°52'0 0.0
2018-May-16 10:00N 29°43' W 093°52'0 0.0
2018-May-16 09:30N 29°43' W 093°52'0 0.0
2018-May-16 08:59N 29°43' W 093°52'0 0.0
2018-May-16 08:30N 29°43' W 093°52'3 5.7
2018-May-16 08:00N 29°41' W 093°50'1019.5
2018-May-16 07:30N 29°32' W 093°45'815.3
2018-May-16 07:00N 29°25' W 093°41'714.3
2018-May-16 06:31N 29°32' W 093°44'1121.1
2018-May-16 06:00N 29°41' W 093°50'2 3.8
2018-May-16 05:30N 29°39' W 093°50'0 0.5
2018-May-16 05:00N 29°39' W 093°50'4 8.5
2018-May-16 04:30N 29°43' W 093°52'0 0.0
2018-May-16 04:00N 29°43' W 093°52'0 0.0
2018-May-16 03:30N 29°43' W 093°52'0 0.0
2018-May-16 03:01N 29°43' W 093°52'0 0.0
2018-May-16 02:30N 29°43' W 093°52'4 7.2
2018-May-16 02:00N 29°40' W 093°50'2 4.5
2018-May-16 01:30N 29°38' W 093°49'3 5.6
2018-May-16 01:00N 29°36' W 093°47'3 6.2
2018-May-16 00:30N 29°38' W 093°49'611.4
2018-May-16 00:00N 29°43' W 093°52'0 0.0
2018-May-15 23:27N 29°43' W 093°52'0 0.0
2018-May-15 22:59N 29°43' W 093°52'0 0.0
2018-May-15 22:30N 29°43' W 093°52'0 0.0
2018-May-15 22:00N 29°43' W 093°52'0 0.0
2018-May-15 21:30N 29°43' W 093°52'0 0.0
2018-May-15 21:00N 29°43' W 093°52'0 0.0
2018-May-15 20:30N 29°43' W 093°52'0 0.0
2018-May-15 20:00N 29°43' W 093°52'0 0.0
2018-May-15 19:30N 29°43' W 093°52'0 0.0
2018-May-15 19:00N 29°43' W 093°52'0 0.0
2018-May-15 18:30N 29°43' W 093°52'0 0.0
2018-May-15 18:00N 29°43' W 093°52'0 0.0
2018-May-15 17:30N 29°43' W 093°52'0 0.0
2018-May-15 17:00N 29°43' W 093°52'0 0.0
2018-May-15 16:30N 29°43' W 093°52'0 0.0
2018-May-15 15:59N 29°43' W 093°52'0 0.1
2018-May-15 15:30N 29°43' W 093°52'0 0.1
2018-May-15 15:00N 29°43' W 093°52'0 0.0
2018-May-15 14:30N 29°43' W 093°52'0 0.0
2018-May-15 14:00N 29°43' W 093°52'0 0.0
2018-May-15 13:30N 29°43' W 093°52'0 0.0
2018-May-15 13:01N 29°43' W 093°52'0 0.0
2018-May-15 12:24N 29°43' W 093°52'0 0.0
2018-May-15 12:00N 29°43' W 093°52'0 0.0
2018-May-15 11:30N 29°43' W 093°52'0 0.0
2018-May-15 11:00N 29°43' W 093°52'0 0.0
2018-May-15 10:30N 29°43' W 093°52'0 0.0
2018-May-15 10:00N 29°43' W 093°52'0 0.0
2018-May-15 09:30N 29°43' W 093°52'0 0.0
2018-May-15 09:00N 29°43' W 093°52'0 0.0
2018-May-15 08:30N 29°43' W 093°52'0 0.0
2018-May-15 08:00N 29°43' W 093°52'0 0.6
2018-May-15 07:30N 29°43' W 093°52'918.8
2018-May-15 07:00N 29°35' W 093°47'1119.7
2018-May-15 06:28N 29°26' W 093°40'1 2.7
2018-May-15 05:58N 29°27' W 093°40'1 1.5
2018-May-15 05:28N 29°26' W 093°41'919.2
2018-May-15 05:00N 29°34' W 093°46'918.2
2018-May-15 04:30N 29°42' W 093°51'2 3.1
2018-May-15 04:00N 29°43' W 093°52'0 0.0
2018-May-15 03:31N 29°43' W 093°52'0 0.0
2018-May-15 03:00N 29°43' W 093°52'0 0.0
2018-May-15 02:30N 29°43' W 093°52'0 0.0
2018-May-15 01:59N 29°43' W 093°52'0 0.0
2018-May-15 01:31N 29°43' W 093°52'0 0.0
2018-May-15 01:01N 29°43' W 093°52'0 0.0
2018-May-15 00:31N 29°43' W 093°52'0 0.0
2018-May-15 00:00N 29°43' W 093°52'0 0.0
2018-May-14 23:30N 29°43' W 093°52'0 0.0
2018-May-14 23:00N 29°43' W 093°52'0 0.0
2018-May-14 22:30N 29°43' W 093°52'0 0.0
2018-May-14 22:00N 29°43' W 093°52'0 0.0
2018-May-14 21:30N 29°43' W 093°52'0 0.0
2018-May-14 21:00N 29°43' W 093°52'0 0.0
2018-May-14 20:28N 29°43' W 093°52'0 0.0
2018-May-14 20:00N 29°43' W 093°52'0 0.0
2018-May-14 19:30N 29°43' W 093°52'0 0.0
2018-May-14 19:00N 29°43' W 093°52'0 0.0
2018-May-14 18:30N 29°43' W 093°52'0 0.0
2018-May-14 17:59N 29°43' W 093°52'0 0.0
2018-May-14 17:30N 29°43' W 093°52'0 0.0
2018-May-14 17:00N 29°43' W 093°52'0 0.0
2018-May-14 16:27N 29°43' W 093°52'0 0.0
2018-May-14 16:00N 29°43' W 093°52'0 0.0
2018-May-14 15:29N 29°43' W 093°52'0 0.0
2018-May-14 15:00N 29°43' W 093°52'0 0.0
2018-May-14 14:28N 29°43' W 093°52'0 0.0
2018-May-14 14:00N 29°43' W 093°52'0 0.0
2018-May-14 13:30N 29°43' W 093°52'0 0.0
2018-May-14 13:00N 29°43' W 093°52'0 0.0
2018-May-14 12:24N 29°43' W 093°52'0 0.0
2018-May-14 12:00N 29°43' W 093°52'0 0.0
2018-May-14 11:29N 29°43' W 093°52'0 0.0
2018-May-14 11:00N 29°43' W 093°52'0 0.0
2018-May-14 10:30N 29°43' W 093°52'0 0.0
2018-May-14 10:00N 29°43' W 093°52'0 0.0
2018-May-14 09:30N 29°43' W 093°52'0 0.0
2018-May-14 09:00N 29°43' W 093°52'0 0.0
2018-May-14 08:30N 29°43' W 093°52'0 0.0
2018-May-14 08:00N 29°43' W 093°52'0 0.0
2018-May-14 07:30N 29°43' W 093°52'0 0.0
2018-May-14 07:00N 29°43' W 093°52'0 0.0
2018-May-14 06:30N 29°43' W 093°52'0 0.0
2018-May-14 06:01N 29°43' W 093°52'0 0.0
2018-May-14 05:30N 29°43' W 093°52'0 0.0
2018-May-14 05:00N 29°43' W 093°52'0 0.0
2018-May-14 04:31N 29°43' W 093°52'0 0.0
2018-May-14 04:00N 29°43' W 093°52'0 0.0
2018-May-14 03:29N 29°43' W 093°52'0 0.0
2018-May-14 02:59N 29°43' W 093°52'0 0.0
2018-May-14 02:29N 29°43' W 093°52'0 0.0
2018-May-14 02:00N 29°43' W 093°52'0 0.0
2018-May-14 01:30N 29°43' W 093°52'0 0.0
2018-May-14 01:00N 29°43' W 093°52'0 0.0
2018-May-14 00:30N 29°43' W 093°52'0 0.0
2018-May-14 00:00N 29°43' W 093°52'0 0.0
2018-May-13 23:28N 29°43' W 093°52'0 0.0
2018-May-13 23:00N 29°43' W 093°52'0 0.0
2018-May-13 22:30N 29°43' W 093°52'0 0.0
2018-May-13 22:00N 29°43' W 093°52'0 0.0
2018-May-13 21:30N 29°43' W 093°52'0 0.0
2018-May-13 21:00N 29°43' W 093°52'0 0.0
2018-May-13 20:30N 29°43' W 093°52'0 0.0
2018-May-13 20:00N 29°43' W 093°52'0 0.0
2018-May-13 19:30N 29°43' W 093°52'0 0.0
2018-May-13 19:00N 29°43' W 093°52'0 0.0
2018-May-13 18:30N 29°43' W 093°52'0 0.0
2018-May-13 18:00N 29°43' W 093°52'0 0.0
2018-May-13 17:30N 29°43' W 093°52'0 0.0
2018-May-13 17:00N 29°43' W 093°52'0 0.0
2018-May-13 16:30N 29°43' W 093°52'0 0.0
2018-May-13 16:00N 29°43' W 093°52'0 0.0
2018-May-13 15:30N 29°43' W 093°52'0 0.0
2018-May-13 15:00N 29°43' W 093°52'0 0.0
2018-May-13 14:30N 29°43' W 093°52'0 0.0
2018-May-13 14:00N 29°43' W 093°52'0 0.0
2018-May-13 13:30N 29°43' W 093°52'0 0.0
2018-May-13 13:00N 29°43' W 093°52'0 0.0
2018-May-13 12:30N 29°43' W 093°52'0 0.0
2018-May-13 11:59N 29°43' W 093°52'0 0.0
2018-May-13 11:29N 29°43' W 093°52'0 0.0
2018-May-13 10:59N 29°43' W 093°52'0 0.0
2018-May-13 10:27N 29°43' W 093°52'0 0.0
2018-May-13 10:00N 29°43' W 093°52'0 0.0
2018-May-13 09:30N 29°43' W 093°52'0 0.0
2018-May-13 08:58N 29°43' W 093°52'0 0.0
2018-May-13 08:30N 29°43' W 093°52'0 0.0
2018-May-13 08:00N 29°43' W 093°52'0 0.0
2018-May-13 07:30N 29°43' W 093°52'0 0.0
2018-May-13 07:00N 29°43' W 093°52'0 0.0
2018-May-13 06:30N 29°43' W 093°52'0 0.0
2018-May-13 06:00N 29°43' W 093°52'0 0.0
2018-May-13 05:30N 29°43' W 093°52'0 0.0
2018-May-13 05:00N 29°43' W 093°52'0 0.0
2018-May-13 04:30N 29°43' W 093°52'0 0.0
2018-May-13 04:00N 29°43' W 093°52'0 0.0
2018-May-13 03:27N 29°43' W 093°52'0 0.0
2018-May-13 03:00N 29°43' W 093°52'0 0.0
2018-May-13 02:30N 29°43' W 093°52'0 0.0
2018-May-13 01:59N 29°43' W 093°52'0 0.0
2018-May-13 01:30N 29°43' W 093°52'0 0.0
2018-May-13 01:00N 29°43' W 093°52'0 0.0
2018-May-13 00:30N 29°43' W 093°52'0 0.0
2018-May-12 23:59N 29°43' W 093°52'0 0.0
2018-May-12 23:30N 29°43' W 093°52'0 0.0
2018-May-12 22:59N 29°43' W 093°52'0 0.0
2018-May-12 22:30N 29°43' W 093°52'0 0.0
2018-May-12 21:56N 29°43' W 093°52'0 0.0
2018-May-12 21:29N 29°43' W 093°52'0 0.0
2018-May-12 20:59N 29°43' W 093°52'0 0.0
2018-May-12 20:30N 29°43' W 093°52'0 0.0
2018-May-12 20:00N 29°43' W 093°52'0 0.0
2018-May-12 19:29N 29°43' W 093°52'0 0.0
2018-May-12 19:00N 29°43' W 093°52'0 0.0
2018-May-12 18:30N 29°43' W 093°52'0 0.0
2018-May-12 18:00N 29°43' W 093°52'0 0.0
2018-May-12 17:30N 29°43' W 093°52'0 0.0
2018-May-12 17:00N 29°43' W 093°52'0 0.0
2018-May-12 16:30N 29°43' W 093°52'0 0.0
2018-May-12 16:00N 29°43' W 093°52'0 0.0
2018-May-12 15:30N 29°43' W 093°52'2 4.3
2018-May-12 15:00N 29°42' W 093°50'713.7
2018-May-12 14:30N 29°35' W 093°47'816.2
2018-May-12 14:01N 29°43' W 093°51'1 1.8
2018-May-12 13:30N 29°43' W 093°52'0 0.0
2018-May-12 12:59N 29°43' W 093°52'0 0.0
2018-May-12 12:28N 29°43' W 093°52'0 0.0
2018-May-12 12:00N 29°43' W 093°52'0 0.0
2018-May-12 11:30N 29°43' W 093°52'0 0.0
2018-May-12 11:00N 29°43' W 093°52'5 9.3
2018-May-12 10:31N 29°39' W 093°50'611.0
2018-May-12 10:01N 29°35' W 093°45'917.3
2018-May-12 09:30N 29°42' W 093°51'1 2.5
2018-May-12 09:00N 29°43' W 093°52'0 0.0
2018-May-12 08:30N 29°43' W 093°52'0 0.0
2018-May-12 08:00N 29°43' W 093°52'0 0.0
2018-May-12 07:30N 29°43' W 093°52'0 0.0
2018-May-12 07:00N 29°43' W 093°52'0 0.0
2018-May-12 06:30N 29°43' W 093°52'0 0.0
2018-May-12 06:00N 29°43' W 093°52'0 0.0
2018-May-12 05:30N 29°43' W 093°52'815.8
2018-May-12 05:00N 29°36' W 093°48'4 7.8
2018-May-12 04:30N 29°40' W 093°50'4 7.9
2018-May-12 04:00N 29°43' W 093°52'0 0.0
2018-May-12 03:30N 29°43' W 093°52'2 4.3
2018-May-12 03:00N 29°42' W 093°50'0 0.5
2018-May-12 02:30N 29°41' W 093°50'2 4.8
2018-May-12 02:00N 29°43' W 093°52'0 0.0
2018-May-12 01:29N 29°43' W 093°52'0 0.0
2018-May-12 01:00N 29°43' W 093°52'0 0.0
2018-May-12 00:29N 29°43' W 093°52'0 0.0
2018-May-12 00:00N 29°43' W 093°52'0 0.0
2018-May-11 23:29N 29°43' W 093°52'0 0.0
2018-May-11 22:59N 29°43' W 093°52'0 0.0
2018-May-11 22:30N 29°43' W 093°52'0 0.0
2018-May-11 22:00N 29°43' W 093°52'0 0.0
2018-May-11 21:30N 29°43' W 093°52'1 1.3
2018-May-11 21:01N 29°43' W 093°51'714.1
2018-May-11 20:30N 29°36' W 093°48'1320.2
2018-May-11 19:52N 29°25' W 093°40'0 0.4
2018-May-11 19:14N 29°25' W 093°40'414.6
2018-May-11 18:56N 29°28' W 093°43'819.8
2018-May-11 18:30N 29°36' W 093°48'816.3
2018-May-11 18:00N 29°43' W 093°52'815.9
2018-May-11 17:31N 29°36' W 093°48'5 9.9
2018-May-11 17:00N 29°41' W 093°50'3 6.0
2018-May-11 16:30N 29°43' W 093°52'0 0.0
2018-May-11 15:59N 29°43' W 093°52'0 0.0
2018-May-11 15:30N 29°43' W 093°52'0 0.0
2018-May-11 15:00N 29°43' W 093°52'0 0.0
2018-May-11 14:30N 29°43' W 093°52'0 0.0
2018-May-11 14:00N 29°43' W 093°52'0 0.0
2018-May-11 13:30N 29°43' W 093°52'0 0.0
2018-May-11 13:00N 29°43' W 093°52'0 0.0
2018-May-11 12:30N 29°43' W 093°52'0 0.0
2018-May-11 11:59N 29°43' W 093°52'0 0.0
2018-May-11 11:29N 29°43' W 093°52'0 0.0
2018-May-11 11:00N 29°43' W 093°52'0 0.0
2018-May-11 10:28N 29°43' W 093°52'3 5.6
2018-May-11 10:00N 29°41' W 093°50'5 9.5
2018-May-11 09:30N 29°37' W 093°49'5 9.9
2018-May-11 09:01N 29°41' W 093°50'2 4.8
2018-May-11 08:30N 29°43' W 093°52'0 0.0
2018-May-11 08:00N 29°43' W 093°52'0 0.0
2018-May-11 07:30N 29°43' W 093°52'0 0.0
2018-May-11 07:00N 29°43' W 093°52'0 0.0
2018-May-11 06:30N 29°43' W 093°52'0 0.0
2018-May-11 06:00N 29°43' W 093°52'0 0.0
2018-May-11 05:30N 29°43' W 093°52'0 0.0
2018-May-11 05:00N 29°43' W 093°52'0 0.0
2018-May-11 04:30N 29°43' W 093°52'0 0.0
2018-May-11 04:00N 29°43' W 093°52'0 0.0
2018-May-11 03:28N 29°43' W 093°52'0 0.0
2018-May-11 03:00N 29°43' W 093°52'0 0.0
2018-May-11 02:28N 29°43' W 093°52'0 0.0
2018-May-11 02:00N 29°43' W 093°52'0 0.0
2018-May-11 01:29N 29°43' W 093°52'0 0.0
2018-May-11 01:00N 29°43' W 093°52'0 0.0
2018-May-11 00:30N 29°43' W 093°52'0 0.0
2018-May-10 23:58N 29°43' W 093°52'0 0.0
2018-May-10 23:30N 29°43' W 093°52'0 0.0
2018-May-10 23:00N 29°43' W 093°52'0 0.0
2018-May-10 22:30N 29°43' W 093°52'0 0.0
2018-May-10 22:00N 29°43' W 093°52'  

Dump ship's entire track history